Time;durP1;ratioP1;P1;durP2;ratioP2;P2;SDS_P1;SDS_P2;PMS_P1;PMS_P2;Temp;Humidity;BMP_temperature;BMP_pressure;BME280_temperature;BME280_humidity;BME280_pressure;Samples;Min_cycle;Max_cycle;Signal;HPM_P1;HPM_P2
2022/03/19 00:00:22;;;;;;;38.03;13.15;;;;;;;-146.84;100.00;65060.63;5009282;28;20075;-78
2022/03/19 00:02:48;;;;;;;36.22;13.88;;;;;;;-146.84;100.00;65060.63;4992957;28;20041;-77
2022/03/19 00:05:14;;;;;;;40.40;12.90;;;;;;;-146.84;100.00;65060.63;5009120;28;20034;-77
2022/03/19 00:07:42;;;;;;;39.08;13.23;;;;;;;-146.84;100.00;65060.63;4990893;28;20042;-78
2022/03/19 00:10:13;;;;;;;42.50;13.75;;;;;;;-146.84;100.00;65060.63;5008795;28;20026;-78
2022/03/19 00:12:39;;;;;;;47.85;16.02;;;;;;;-146.84;100.00;65060.63;4988202;28;20037;-77
2022/03/19 00:15:09;;;;;;;42.60;15.02;;;;;;;-146.84;100.00;65060.63;4974541;28;20416;-78
2022/03/19 00:17:35;;;;;;;39.28;15.32;;;;;;;-146.84;100.00;65060.63;4990957;28;20136;-77
2022/03/19 00:20:02;;;;;;;39.60;14.45;;;;;;;-146.84;100.00;65060.63;4992623;28;20045;-78
2022/03/19 00:22:27;;;;;;;49.92;16.42;;;;;;;-146.84;100.00;65060.63;5009640;28;20042;-77
2022/03/19 00:24:53;;;;;;;41.97;15.70;;;;;;;-146.84;100.00;65060.63;4992692;28;20492;-76
2022/03/19 00:27:19;;;;;;;43.42;16.10;;;;;;;-146.84;100.00;65060.63;4977497;28;20118;-78
2022/03/19 00:29:45;;;;;;;42.35;14.82;;;;;;;-146.84;100.00;65060.63;4980146;28;20041;-76
2022/03/19 00:32:11;;;;;;;54.83;16.10;;;;;;;-146.84;100.00;65060.63;4992811;28;20044;-78
2022/03/19 00:34:36;;;;;;;49.58;15.30;;;;;;;-146.84;100.00;65060.63;5010772;28;20034;-78
2022/03/19 00:37:02;;;;;;;47.90;14.63;;;;;;;-146.84;100.00;65060.63;4993797;28;20125;-78
2022/03/19 00:39:27;;;;;;;34.92;15.23;;;;;;;-146.84;100.00;65060.63;5005212;28;20042;-78
2022/03/19 00:41:53;;;;;;;39.92;13.85;;;;;;;-146.84;100.00;65060.63;4985480;28;20520;-78
2022/03/19 00:44:21;;;;;;;45.45;14.70;;;;;;;-146.84;100.00;65060.63;5009979;28;20042;-79
2022/03/19 00:46:47;;;;;;;46.42;15.75;;;;;;;-146.84;100.00;65060.63;4990807;28;20117;-76
2022/03/19 00:49:14;;;;;;;42.28;15.75;;;;;;;-146.84;100.00;65060.63;5010363;28;20037;-79
2022/03/19 00:51:40;;;;;;;37.83;14.82;;;;;;;-146.84;100.00;65060.63;4988249;28;20117;-79
2022/03/19 00:54:07;;;;;;;46.08;15.38;;;;;;;-146.84;100.00;65060.63;5024957;28;20058;-79
2022/03/19 00:56:33;;;;;;;39.92;14.45;;;;;;;-146.84;100.00;65060.63;5006215;28;20176;-77
2022/03/19 00:59:00;;;;;;;46.28;14.43;;;;;;;-146.84;100.00;65060.63;4976118;28;20516;-78
2022/03/19 01:01:26;;;;;;;45.10;15.05;;;;;;;-146.84;100.00;65060.63;5011068;28;20111;-79
2022/03/19 01:03:51;;;;;;;39.58;14.57;;;;;;;-146.84;100.00;65060.63;4986138;28;20089;-80
2022/03/19 01:06:17;;;;;;;49.47;15.32;;;;;;;-146.84;100.00;65060.63;5015719;28;20447;-76
2022/03/19 01:08:43;;;;;;;35.55;14.18;;;;;;;-146.84;100.00;65060.63;4988963;28;20117;-79
2022/03/19 01:11:08;;;;;;;44.33;14.20;;;;;;;-146.84;100.00;65060.63;5009355;28;20089;-76
2022/03/19 01:13:34;;;;;;;37.17;14.25;;;;;;;-146.84;100.00;65060.63;5000870;28;20288;-80
2022/03/19 01:16:01;;;;;;;35.90;13.93;;;;;;;-146.84;100.00;65060.63;5001243;28;20497;-79
2022/03/19 01:18:26;;;;;;;41.15;14.85;;;;;;;-146.84;100.00;65060.63;4993276;28;20058;-80
2022/03/19 01:20:52;;;;;;;43.03;14.52;;;;;;;-146.84;100.00;65060.63;5013403;28;20077;-79
2022/03/19 01:23:17;;;;;;;41.63;14.35;;;;;;;-146.84;100.00;65060.63;5034839;28;20396;-78
2022/03/19 01:25:43;;;;;;;40.75;14.20;;;;;;;-146.84;100.00;65060.63;4996191;28;20033;-78
2022/03/19 01:28:08;;;;;;;34.33;13.50;;;;;;;-146.84;100.00;65060.63;5019411;28;20084;-80
2022/03/19 01:30:34;;;;;;;38.42;13.95;;;;;;;-146.84;100.00;65060.63;5001296;28;20107;-79
2022/03/19 01:33:00;;;;;;;43.90;13.45;;;;;;;-146.84;100.00;65060.63;4985018;28;20420;-77
2022/03/19 01:35:25;;;;;;;40.30;13.48;;;;;;;-146.84;100.00;65060.63;5016121;28;20488;-76
2022/03/19 01:37:53;;;;;;;43.03;14.57;;;;;;;-146.84;100.00;65060.63;4999631;28;20072;-77
2022/03/19 01:40:19;;;;;;;47.28;14.73;;;;;;;-146.84;100.00;65060.63;4998945;28;20051;-78
2022/03/19 01:42:48;;;;;;;43.95;13.32;;;;;;;-146.84;100.00;65060.63;4995931;28;20033;-78
2022/03/19 01:45:16;;;;;;;28.30;12.68;;;;;;;-146.84;100.00;65060.63;5012145;28;20417;-76
2022/03/19 01:47:42;;;;;;;39.95;12.88;;;;;;;-146.84;100.00;65060.63;4984453;28;20034;-80
2022/03/19 01:50:09;;;;;;;38.95;13.13;;;;;;;-146.84;100.00;65060.63;4988070;28;20055;-79
2022/03/19 01:52:35;;;;;;;37.35;12.32;;;;;;;-146.84;100.00;65060.63;5007244;28;20072;-79
2022/03/19 01:55:02;;;;;;;39.65;13.00;;;;;;;-146.84;100.00;65060.63;5001867;28;20038;-78
2022/03/19 01:57:37;;;;;;;37.47;11.85;;;;;;;-146.84;100.00;65060.63;4995794;28;20041;-78
2022/03/19 02:00:07;;;;;;;35.53;12.48;;;;;;;-146.84;100.00;65060.63;5009132;28;20523;-77
2022/03/19 02:02:39;;;;;;;33.25;11.80;;;;;;;-146.84;100.00;65060.63;5006033;28;20572;-78
2022/03/19 02:05:06;;;;;;;40.28;12.13;;;;;;;-146.84;100.00;65060.63;4987092;28;20041;-77
2022/03/19 02:07:32;;;;;;;35.65;12.13;;;;;;;-146.84;100.00;65060.63;5013771;28;20041;-78
2022/03/19 02:09:58;;;;;;;35.88;11.98;;;;;;;-146.84;100.00;65060.63;4992350;28;20026;-79
2022/03/19 02:12:24;;;;;;;30.95;12.57;;;;;;;-146.84;100.00;65060.63;5010950;28;20117;-78
2022/03/19 02:14:50;;;;;;;31.35;11.60;;;;;;;-146.84;100.00;65060.63;4992984;28;20125;-78
2022/03/19 02:17:16;;;;;;;36.05;11.35;;;;;;;-146.84;100.00;65060.63;4994008;28;20072;-78
2022/03/19 02:19:48;;;;;;;34.17;11.18;;;;;;;-146.84;100.00;65060.63;5015302;28;20038;-78
2022/03/19 02:22:15;;;;;;;37.03;11.05;;;;;;;-146.84;100.00;65060.63;4994581;28;20518;-78
2022/03/19 02:27:24;;;;;;;27.42;9.75;;;;;;;-146.84;100.00;65060.63;5008742;28;20034;-79
2022/03/19 02:29:51;;;;;;;24.38;9.68;;;;;;;-146.84;100.00;65060.63;4992318;28;20068;-78
2022/03/19 02:32:17;;;;;;;35.17;11.63;;;;;;;-146.84;100.00;65060.63;4994461;28;20486;-77
2022/03/19 02:34:43;;;;;;;30.23;11.00;;;;;;;-146.84;100.00;65060.63;4994257;28;20049;-79
2022/03/19 02:37:10;;;;;;;32.78;10.45;;;;;;;-146.84;100.00;65060.63;4987686;28;20555;-80
2022/03/19 02:39:36;;;;;;;29.45;10.27;;;;;;;-146.84;100.00;65060.63;4996776;28;20044;-80
2022/03/19 02:42:04;;;;;;;30.52;10.10;;;;;;;-146.84;100.00;65060.63;4991637;28;20041;-79
2022/03/19 02:44:30;;;;;;;32.35;11.38;;;;;;;-146.84;100.00;65060.63;4995759;28;20053;-80
2022/03/19 02:46:58;;;;;;;29.17;10.65;;;;;;;-146.84;100.00;65060.63;4980807;28;20041;-78
2022/03/19 02:49:24;;;;;;;30.63;11.00;;;;;;;-146.84;100.00;65060.63;4992316;28;20445;-79
2022/03/19 02:51:53;;;;;;;34.08;10.38;;;;;;;-146.84;100.00;65060.63;4990900;28;20026;-79
2022/03/19 02:54:22;;;;;;;36.85;9.98;;;;;;;-146.84;100.00;65060.63;4988198;28;20038;-78
2022/03/19 02:56:49;;;;;;;39.20;10.63;;;;;;;-146.84;100.00;65060.63;4996121;28;20040;-78
2022/03/19 02:59:20;;;;;;;35.88;10.93;;;;;;;-146.84;100.00;65060.63;4995838;28;20030;-79
2022/03/19 03:01:52;;;;;;;31.73;9.88;;;;;;;-146.84;100.00;65060.63;5015318;28;20034;-77
2022/03/19 03:04:18;;;;;;;27.80;9.15;;;;;;;-146.84;100.00;65060.63;4991428;28;20125;-76
2022/03/19 03:06:47;;;;;;;29.40;9.15;;;;;;;-146.84;100.00;65060.63;4992861;28;20542;-78
2022/03/19 03:09:13;;;;;;;35.53;9.38;;;;;;;-146.84;100.00;65060.63;4997914;28;20034;-78
2022/03/19 03:11:40;;;;;;;26.25;9.20;;;;;;;-146.84;100.00;65060.63;4993899;28;20047;-79
2022/03/19 03:14:08;;;;;;;32.45;9.52;;;;;;;-146.84;100.00;65060.63;4977306;28;20029;-78
2022/03/19 03:16:34;;;;;;;27.52;9.00;;;;;;;-146.84;100.00;65060.63;4997984;28;20495;-78
2022/03/19 03:19:02;;;;;;;24.70;8.80;;;;;;;-146.84;100.00;65060.63;4999073;28;20037;-81
2022/03/19 03:21:27;;;;;;;28.67;9.32;;;;;;;-146.84;100.00;65060.63;5002532;28;20041;-85
2022/03/19 03:23:54;;;;;;;29.77;8.25;;;;;;;-146.84;100.00;65060.63;4992467;28;20029;-82
2022/03/19 03:26:22;;;;;;;21.17;7.28;;;;;;;-146.84;100.00;65060.63;4978918;28;20125;-83
2022/03/19 03:28:49;;;;;;;22.85;7.78;;;;;;;-146.84;100.00;65060.63;4996561;28;20030;-83
2022/03/19 03:31:15;;;;;;;21.48;8.60;;;;;;;-146.84;100.00;65060.63;4993332;28;20038;-83
2022/03/19 03:33:41;;;;;;;25.73;8.65;;;;;;;-146.84;100.00;65060.63;5001377;28;20174;-84
2022/03/19 03:36:07;;;;;;;18.35;7.20;;;;;;;-146.84;100.00;65060.63;4993854;28;20048;-83
2022/03/19 03:38:34;;;;;;;24.73;7.63;;;;;;;-146.84;100.00;65060.63;4995685;28;20408;-85
2022/03/19 03:41:00;;;;;;;23.65;8.02;;;;;;;-146.84;100.00;65060.63;4979101;28;20041;-81
2022/03/19 03:43:26;;;;;;;27.00;8.02;;;;;;;-146.84;100.00;65060.63;4978629;28;20041;-84
2022/03/19 03:45:51;;;;;;;25.38;7.57;;;;;;;-146.84;100.00;65060.63;4990361;28;20041;-83
2022/03/19 03:48:17;;;;;;;23.73;7.60;;;;;;;-146.84;100.00;65060.63;4993860;28;20096;-83
2022/03/19 03:50:43;;;;;;;25.13;7.60;;;;;;;-146.84;100.00;65060.63;4994401;28;20045;-83
2022/03/19 03:53:09;;;;;;;18.95;6.65;;;;;;;-146.84;100.00;65060.63;5009008;28;20037;-82
2022/03/19 03:55:37;;;;;;;30.33;8.00;;;;;;;-146.84;100.00;65060.63;5006493;28;20049;-82
2022/03/19 03:58:04;;;;;;;24.52;7.60;;;;;;;-146.84;100.00;65060.63;4987890;28;20037;-78
2022/03/19 04:00:31;;;;;;;23.80;7.40;;;;;;;-146.84;100.00;65060.63;5006877;28;20124;-82
2022/03/19 04:02:58;;;;;;;27.77;7.50;;;;;;;-146.84;100.00;65060.63;4975847;28;20034;-83
2022/03/19 04:05:24;;;;;;;20.80;7.05;;;;;;;-146.84;100.00;65060.63;4994140;28;20057;-82
2022/03/19 04:07:50;;;;;;;26.60;7.82;;;;;;;-146.84;100.00;65060.63;4991560;28;20042;-83
2022/03/19 04:10:16;;;;;;;26.80;7.30;;;;;;;-146.84;100.00;65060.63;4969970;28;20025;-83
2022/03/19 04:12:42;;;;;;;25.85;7.93;;;;;;;-146.84;100.00;65060.63;4994887;28;20092;-78
2022/03/19 04:15:09;;;;;;;24.17;7.57;;;;;;;-146.84;100.00;65060.63;4997130;28;20042;-83
2022/03/19 04:17:34;;;;;;;23.92;7.30;;;;;;;-146.84;100.00;65060.63;5000227;28;20069;-85
2022/03/19 04:20:00;;;;;;;19.65;6.80;;;;;;;-146.84;100.00;65060.63;4991875;28;20046;-84
2022/03/19 04:22:34;;;;;;;25.42;7.70;;;;;;;-146.84;100.00;65060.63;5009153;28;20056;-83
2022/03/19 04:24:59;;;;;;;34.08;8.18;;;;;;;-146.84;100.00;65060.63;5019992;28;20508;-82
2022/03/19 04:27:25;;;;;;;26.80;8.65;;;;;;;-146.84;100.00;65060.63;4978278;28;20125;-83
2022/03/19 04:29:51;;;;;;;24.98;8.77;;;;;;;-146.84;100.00;65060.63;4988132;28;20038;-83
2022/03/19 04:32:16;;;;;;;31.95;9.57;;;;;;;-146.84;100.00;65060.63;4994973;28;20393;-83
2022/03/19 04:34:42;;;;;;;31.52;9.75;;;;;;;-146.84;100.00;65060.63;5004018;28;20125;-83
2022/03/19 04:37:08;;;;;;;23.50;8.60;;;;;;;-146.84;100.00;65060.63;4984697;28;20045;-84
2022/03/19 04:39:34;;;;;;;26.25;9.18;;;;;;;-146.84;100.00;65060.63;5017674;28;20038;-83
2022/03/19 04:41:59;;;;;;;28.75;9.25;;;;;;;-146.84;100.00;65060.63;5000928;28;20084;-82
2022/03/19 04:44:25;;;;;;;28.38;9.55;;;;;;;-146.84;100.00;65060.63;5017171;28;20046;-83
2022/03/19 04:46:51;;;;;;;24.30;8.55;;;;;;;-146.84;100.00;65060.63;5016624;28;20038;-83
2022/03/19 04:49:16;;;;;;;23.83;8.98;;;;;;;-146.84;100.00;65060.63;5021267;28;20052;-84
2022/03/19 04:51:42;;;;;;;26.50;9.48;;;;;;;-146.84;100.00;65060.63;4984876;28;20033;-80
2022/03/19 04:54:08;;;;;;;22.15;8.00;;;;;;;-146.84;100.00;65060.63;4999259;28;20038;-83
2022/03/19 04:56:34;;;;;;;24.08;8.68;;;;;;;-146.84;100.00;65060.63;4999575;28;20129;-83
2022/03/19 04:59:01;;;;;;;23.23;8.73;;;;;;;-146.84;100.00;65060.63;4998207;28;20048;-81
2022/03/19 05:01:29;;;;;;;25.13;8.45;;;;;;;-146.84;100.00;65060.63;4999991;28;20495;-83
2022/03/19 05:03:55;;;;;;;26.85;8.77;;;;;;;-146.84;100.00;65060.63;5013106;28;20489;-82
2022/03/19 05:06:21;;;;;;;24.65;8.85;;;;;;;-146.84;100.00;65060.63;5028397;28;20040;-80
2022/03/19 05:11:12;;;;;;;24.48;8.80;;;;;;;-146.84;100.00;65060.63;5003913;28;20120;-81
2022/03/19 05:11:35;;;;;;;26.17;8.50;;;;;;;-146.84;100.00;65060.63;5015991;28;20034;-83
2022/03/19 05:14:04;;;;;;;28.95;7.95;;;;;;;-146.84;100.00;65060.63;4997161;28;20083;-79
2022/03/19 05:16:30;;;;;;;30.63;8.02;;;;;;;-146.84;100.00;65060.63;5000150;28;20068;-82
2022/03/19 05:18:56;;;;;;;27.80;7.72;;;;;;;-146.84;100.00;65060.63;4985575;28;20042;-82
2022/03/19 05:21:22;;;;;;;27.45;7.97;;;;;;;-146.84;100.00;65060.63;5019147;28;20511;-83
2022/03/19 05:23:48;;;;;;;25.05;7.30;;;;;;;-146.84;100.00;65060.63;4996730;28;20045;-83
2022/03/19 05:26:13;;;;;;;30.05;7.50;;;;;;;-146.84;100.00;65060.63;4984496;28;20077;-83
2022/03/19 05:28:39;;;;;;;28.73;7.68;;;;;;;-146.84;100.00;65060.63;5000817;28;20193;-84
2022/03/19 05:31:08;;;;;;;33.35;8.18;;;;;;;-146.84;100.00;65060.63;4999452;28;20037;-82
2022/03/19 05:36:18;;;;;;;39.65;8.90;;;;;;;-146.84;100.00;65060.63;5010790;28;20038;-80
2022/03/19 05:38:44;;;;;;;33.25;8.68;;;;;;;-146.84;100.00;65060.63;4992469;28;20045;-79
2022/03/19 05:41:10;;;;;;;37.60;8.77;;;;;;;-146.84;100.00;65060.63;5018931;28;20057;-81
2022/03/19 05:43:36;;;;;;;37.08;8.95;;;;;;;-146.84;100.00;65060.63;5020611;28;20101;-77
2022/03/19 05:46:02;;;;;;;29.52;8.45;;;;;;;-146.84;100.00;65060.63;5003878;28;20037;-82
2022/03/19 05:48:28;;;;;;;38.28;8.57;;;;;;;-146.84;100.00;65060.63;5033242;28;20042;-81
2022/03/19 05:50:54;;;;;;;32.25;7.70;;;;;;;-146.84;100.00;65060.63;4997730;28;20061;-81
2022/03/19 05:53:20;;;;;;;31.42;8.38;;;;;;;-146.84;100.00;65060.63;5016738;28;20046;-83
2022/03/19 05:55:45;;;;;;;26.67;7.47;;;;;;;-146.84;100.00;65060.63;5016102;28;20040;-79
2022/03/19 05:58:11;;;;;;;34.60;8.00;;;;;;;-146.84;100.00;65060.63;5000795;28;20042;-79
2022/03/19 06:00:37;;;;;;;30.90;8.05;;;;;;;-146.84;100.00;65060.63;4999841;28;20026;-83
2022/03/19 06:03:03;;;;;;;34.05;7.43;;;;;;;-146.84;100.00;65060.63;4993312;28;20669;-82
2022/03/19 06:05:29;;;;;;;33.47;7.20;;;;;;;-146.84;100.00;65060.63;5015419;28;20050;-82
2022/03/19 06:07:54;;;;;;;29.70;7.63;;;;;;;-146.84;100.00;65060.63;5004834;28;20129;-83
2022/03/19 06:10:20;;;;;;;25.63;6.82;;;;;;;-146.84;100.00;65060.63;4983574;28;20038;-81
2022/03/19 06:12:46;;;;;;;36.72;6.53;;;;;;;-146.84;100.00;65060.63;4999782;28;20084;-81
2022/03/19 06:15:12;;;;;;;25.00;6.45;;;;;;;-146.84;100.00;65060.63;4998247;28;20034;-81
2022/03/19 06:17:38;;;;;;;34.78;6.93;;;;;;;-146.84;100.00;65060.63;4993394;28;20044;-82
2022/03/19 06:20:04;;;;;;;23.85;5.60;;;;;;;-146.84;100.00;65060.63;4985828;28;20484;-81
2022/03/19 06:22:30;;;;;;;22.65;5.18;;;;;;;-146.84;100.00;65060.63;4999379;28;20054;-82
2022/03/19 06:24:55;;;;;;;29.85;5.70;;;;;;;-146.84;100.00;65060.63;5012031;28;20452;-83
2022/03/19 06:27:22;;;;;;;34.65;6.18;;;;;;;-146.84;100.00;65060.63;4996468;28;20490;-82
2022/03/19 06:29:48;;;;;;;26.92;5.07;;;;;;;-146.84;100.00;65060.63;4996385;28;20030;-82
2022/03/19 06:32:20;;;;;;;25.38;4.32;;;;;;;-146.84;100.00;65060.63;4999864;28;20175;-81
2022/03/19 06:34:48;;;;;;;19.00;4.40;;;;;;;-146.84;100.00;65060.63;4996374;28;20049;-82
2022/03/19 06:37:20;;;;;;;22.75;4.80;;;;;;;-146.84;100.00;65060.63;4997925;28;20096;-82
2022/03/19 06:39:57;;;;;;;19.88;4.50;;;;;;;-146.84;100.00;65060.63;4997114;28;20064;-77
2022/03/19 06:42:23;;;;;;;25.50;4.22;;;;;;;-146.84;100.00;65060.63;5011168;28;20180;-85
2022/03/19 06:44:49;;;;;;;18.60;3.70;;;;;;;-146.84;100.00;65060.63;4995538;28;20097;-82
2022/03/19 06:47:15;;;;;;;17.38;4.07;;;;;;;-146.84;100.00;65060.63;5007978;28;20030;-86
2022/03/19 06:49:41;;;;;;;22.00;3.80;;;;;;;-146.84;100.00;65060.63;4998821;28;20073;-82
2022/03/19 06:52:08;;;;;;;23.25;4.10;;;;;;;-146.84;100.00;65060.63;4996833;28;20041;-83
2022/03/19 06:54:33;;;;;;;21.63;4.10;;;;;;;-146.84;100.00;65060.63;4992626;28;20045;-83
2022/03/19 06:56:59;;;;;;;26.08;4.15;;;;;;;-146.84;100.00;65060.63;4990544;28;20042;-82
2022/03/19 06:59:25;;;;;;;26.98;4.38;;;;;;;-146.84;100.00;65060.63;5008634;28;20124;-79
2022/03/19 07:01:50;;;;;;;20.63;4.30;;;;;;;-146.84;100.00;65060.63;4995873;28;20038;-83
2022/03/19 07:04:16;;;;;;;24.40;4.40;;;;;;;-146.84;100.00;65060.63;4981737;28;20133;-82
2022/03/19 07:06:42;;;;;;;18.73;3.60;;;;;;;-146.84;100.00;65060.63;4991172;28;20042;-82
2022/03/19 07:09:07;;;;;;;25.75;4.05;;;;;;;-146.84;100.00;65060.63;4996341;28;20030;-83
2022/03/19 07:11:35;;;;;;;19.85;4.22;;;;;;;-146.84;100.00;65060.63;5008021;28;20034;-82
2022/03/19 07:14:03;;;;;;;23.77;3.60;;;;;;;-146.84;100.00;65060.63;5009638;28;20037;-83
2022/03/19 07:16:29;;;;;;;25.75;3.90;;;;;;;-146.84;100.00;65060.63;5011826;28;20049;-83
2022/03/19 07:18:55;;;;;;;21.08;3.65;;;;;;;-146.84;100.00;65060.63;4994464;28;20721;-84
2022/03/19 07:21:22;;;;;;;12.23;3.13;;;;;;;-146.84;100.00;65060.63;4994408;28;20137;-82
2022/03/19 07:23:49;;;;;;;16.15;3.45;;;;;;;-146.84;100.00;65060.63;4991048;28;20093;-83
2022/03/19 07:26:15;;;;;;;17.55;3.58;;;;;;;-146.84;100.00;65060.63;5010533;28;20029;-82
2022/03/19 07:28:40;;;;;;;21.23;3.83;;;;;;;-146.84;100.00;65060.63;5011022;28;20071;-83
2022/03/19 07:31:06;;;;;;;23.35;3.65;;;;;;;-146.84;100.00;65060.63;4993899;28;20041;-84
2022/03/19 07:33:34;;;;;;;18.08;3.65;;;;;;;-146.84;100.00;65060.63;4994478;28;20038;-83
2022/03/19 07:36:06;;;;;;;18.55;3.63;;;;;;;-146.84;100.00;65060.63;5010458;28;20049;-81
2022/03/19 07:38:31;;;;;;;15.73;3.22;;;;;;;-146.84;100.00;65060.63;5009791;28;20057;-84
2022/03/19 07:43:43;;;;;;;14.13;3.35;;;;;;;-146.84;100.00;65060.63;5018520;28;20065;-84
2022/03/19 07:46:10;;;;;;;19.80;2.83;;;;;;;-146.84;100.00;65060.63;4986994;28;20038;-85
2022/03/19 07:48:36;;;;;;;15.25;3.30;;;;;;;-146.84;100.00;65060.63;4993977;28;20042;-81
2022/03/19 07:51:04;;;;;;;16.90;3.30;;;;;;;-146.84;100.00;65060.63;4985706;28;20076;-84
2022/03/19 07:53:30;;;;;;;20.63;3.40;;;;;;;-146.84;100.00;65060.63;5005081;28;20030;-83
2022/03/19 07:55:56;;;;;;;25.85;4.13;;;;;;;-146.84;100.00;65060.63;5009998;28;20041;-83
2022/03/19 07:58:22;;;;;;;13.63;2.88;;;;;;;-146.84;100.00;65060.63;4993835;28;20041;-83
2022/03/19 08:00:48;;;;;;;15.60;2.95;;;;;;;-146.84;100.00;65060.63;4979329;28;20030;-82
2022/03/19 08:03:14;;;;;;;15.25;2.90;;;;;;;-146.84;100.00;65060.63;5026004;28;20048;-80
2022/03/19 08:05:43;;;;;;;15.55;2.67;;;;;;;-146.84;100.00;65060.63;4993886;28;20034;-83
2022/03/19 08:08:09;;;;;;;17.70;3.28;;;;;;;-146.84;100.00;65060.63;4987361;28;20033;-79
2022/03/19 08:10:36;;;;;;;17.42;2.40;;;;;;;-146.84;100.00;65060.63;4993349;28;20038;-82
2022/03/19 08:13:04;;;;;;;14.73;3.08;;;;;;;-146.84;100.00;65060.63;4987097;28;20034;-83
2022/03/19 08:15:30;;;;;;;15.73;3.35;;;;;;;-146.84;100.00;65060.63;5004005;28;20053;-83
2022/03/19 08:17:56;;;;;;;18.85;2.60;;;;;;;-146.84;100.00;65060.63;5009889;28;20041;-83
2022/03/19 08:20:21;;;;;;;13.85;2.58;;;;;;;-146.84;100.00;65060.63;4972693;28;20124;-82
2022/03/19 08:22:47;;;;;;;21.08;3.17;;;;;;;-146.84;100.00;65060.63;4993125;28;20032;-80
2022/03/19 08:25:13;;;;;;;16.52;2.88;;;;;;;-146.84;100.00;65060.63;5016700;28;20048;-85
2022/03/19 08:27:38;;;;;;;12.63;2.63;;;;;;;-146.84;100.00;65060.63;5005098;28;20033;-82
2022/03/19 08:30:05;;;;;;;19.05;2.85;;;;;;;-146.84;100.00;65060.63;4990048;28;20037;-82
2022/03/19 08:32:31;;;;;;;19.73;3.20;;;;;;;-146.84;100.00;65060.63;4993432;28;20514;-82
2022/03/19 08:34:57;;;;;;;10.18;2.70;;;;;;;-146.84;100.00;65060.63;4994860;28;20045;-81
2022/03/19 08:37:23;;;;;;;15.95;2.58;;;;;;;-146.84;100.00;65060.63;4976111;28;20041;-82
2022/03/19 08:42:34;;;;;;;12.57;2.72;;;;;;;-146.84;100.00;65060.63;5018108;28;20128;-82
2022/03/19 08:44:59;;;;;;;15.32;2.78;;;;;;;-146.84;100.00;65060.63;4991857;28;20019;-79
2022/03/19 08:47:25;;;;;;;11.85;2.50;;;;;;;-146.84;100.00;65060.63;4974837;28;20048;-83
2022/03/19 08:49:50;;;;;;;10.95;2.40;;;;;;;-146.84;100.00;65060.63;5000198;28;20034;-84
2022/03/19 08:52:16;;;;;;;12.68;2.80;;;;;;;-146.84;100.00;65060.63;4987983;28;20034;-83
2022/03/19 08:54:41;;;;;;;13.63;2.80;;;;;;;-146.84;100.00;65060.63;5005691;28;20040;-83
2022/03/19 08:57:07;;;;;;;10.57;2.25;;;;;;;-146.84;100.00;65060.63;4970804;28;20042;-79
2022/03/19 08:59:32;;;;;;;11.43;2.90;;;;;;;-146.84;100.00;65060.63;5008124;28;20048;-79
2022/03/19 09:01:59;;;;;;;14.40;2.78;;;;;;;-146.84;100.00;65060.63;4975246;28;20033;-81
2022/03/19 09:04:25;;;;;;;13.43;2.28;;;;;;;-146.84;100.00;65060.63;4988876;28;20037;-79
2022/03/19 09:06:50;;;;;;;17.95;2.80;;;;;;;-146.84;100.00;65060.63;5001669;28;20042;-79
2022/03/19 09:09:17;;;;;;;9.52;2.58;;;;;;;-146.84;100.00;65060.63;4989602;28;20034;-78
2022/03/19 09:11:43;;;;;;;10.60;2.78;;;;;;;-146.84;100.00;65060.63;5012190;28;20038;-80
2022/03/19 09:14:09;;;;;;;13.48;2.65;;;;;;;-146.84;100.00;65060.63;5022856;28;20431;-78
2022/03/19 09:16:35;;;;;;;13.48;2.90;;;;;;;-146.84;100.00;65060.63;4993823;28;20045;-77
2022/03/19 09:19:02;;;;;;;14.77;2.90;;;;;;;-146.84;100.00;65060.63;4990832;28;20038;-78
2022/03/19 09:21:29;;;;;;;14.20;2.53;;;;;;;-146.84;100.00;65060.63;5008834;28;20038;-79
2022/03/19 09:23:56;;;;;;;17.02;2.75;;;;;;;-146.84;100.00;65060.63;4995317;28;20042;-78
2022/03/19 09:26:22;;;;;;;10.32;2.25;;;;;;;-146.84;100.00;65060.63;5025647;28;20566;-78
2022/03/19 09:28:47;;;;;;;11.18;2.67;;;;;;;-146.84;100.00;65060.63;5007964;28;20068;-77
2022/03/19 09:31:15;;;;;;;12.38;2.85;;;;;;;-146.84;100.00;65060.63;4995689;28;20037;-78
2022/03/19 09:33:42;;;;;;;10.93;2.53;;;;;;;-146.84;100.00;65060.63;5007876;28;20034;-79
2022/03/19 09:36:07;;;;;;;7.95;2.10;;;;;;;-146.84;100.00;65060.63;4989322;28;20061;-79
2022/03/19 09:38:33;;;;;;;13.60;2.35;;;;;;;-146.84;100.00;65060.63;5011645;28;20129;-80
2022/03/19 09:40:59;;;;;;;9.25;2.13;;;;;;;-146.84;100.00;65060.63;5013129;28;20041;-80
2022/03/19 09:43:29;;;;;;;13.27;2.42;;;;;;;-146.84;100.00;65060.63;5011627;28;20042;-80
2022/03/19 09:45:55;;;;;;;14.40;2.20;;;;;;;-146.84;100.00;65060.63;4992946;28;20069;-77
2022/03/19 09:48:21;;;;;;;11.68;2.42;;;;;;;-146.84;100.00;65060.63;4995650;28;20038;-77
2022/03/19 09:50:52;;;;;;;10.30;2.10;;;;;;;-146.84;100.00;65060.63;4994993;28;20037;-74
2022/03/19 09:53:22;;;;;;;10.20;2.25;;;;;;;-146.84;100.00;65060.63;4994939;28;20049;-78
2022/03/19 09:55:49;;;;;;;9.80;1.98;;;;;;;-146.84;100.00;65060.63;4991881;28;20114;-81
2022/03/19 09:58:15;;;;;;;12.60;2.30;;;;;;;-146.84;100.00;65060.63;5009921;28;20124;-80
2022/03/19 10:00:42;;;;;;;8.60;1.63;;;;;;;-146.84;100.00;65060.63;5012053;28;20053;-80
2022/03/19 10:03:12;;;;;;;12.05;2.47;;;;;;;-146.84;100.00;65060.63;5009807;28;20034;-79
2022/03/19 10:08:37;;;;;;;7.85;1.70;;;;;;;-146.84;100.00;65060.63;4994734;28;20081;-80
2022/03/19 10:11:14;;;;;;;8.50;2.00;;;;;;;-146.84;100.00;65060.63;4988811;28;20030;-78
2022/03/19 10:13:42;;;;;;;9.00;1.67;;;;;;;-146.84;100.00;65060.63;5005885;28;20033;-79
2022/03/19 10:16:09;;;;;;;8.05;1.80;;;;;;;-146.84;100.00;65060.63;4996513;28;20033;-77
2022/03/19 10:18:35;;;;;;;14.48;2.00;;;;;;;-146.84;100.00;65060.63;4993793;28;20034;-79
2022/03/19 10:21:21;;;;;;;8.20;1.83;;;;;;;-146.84;100.00;65060.63;5010236;28;20081;-79
2022/03/19 10:23:46;;;;;;;6.97;1.88;;;;;;;-146.84;100.00;65060.63;4992396;28;20133;-78
2022/03/19 10:26:25;;;;;;;8.20;1.52;;;;;;;-146.84;100.00;65060.63;5010806;28;20033;-81
2022/03/19 10:28:57;;;;;;;4.82;1.15;;;;;;;-146.84;100.00;65060.63;5019209;28;20033;-77
2022/03/19 10:31:31;;;;;;;8.48;1.63;;;;;;;-146.84;100.00;65060.63;5011381;28;20048;-80
2022/03/19 10:33:56;;;;;;;7.05;1.10;;;;;;;-146.84;100.00;65060.63;5006471;28;20021;-82
2022/03/19 10:36:32;;;;;;;4.10;1.10;;;;;;;-146.84;100.00;65060.63;4998829;28;20956;-81
2022/03/19 10:38:58;;;;;;;7.05;1.20;;;;;;;-146.84;100.00;65060.63;4997302;28;20034;-79
2022/03/19 10:41:25;;;;;;;11.00;1.60;;;;;;;-146.84;100.00;65060.63;5000545;28;20474;-79
2022/03/19 10:43:51;;;;;;;5.10;1.38;;;;;;;-146.84;100.00;65060.63;5010530;28;20093;-78
2022/03/19 10:46:20;;;;;;;6.10;1.00;;;;;;;-146.84;100.00;65060.63;4990999;28;20062;-79
2022/03/19 10:48:49;;;;;;;3.55;1.17;;;;;;;-146.84;100.00;65060.63;5009886;28;20040;-78
2022/03/19 10:51:14;;;;;;;5.50;1.15;;;;;;;-146.84;100.00;65060.63;4990647;28;20023;-80
2022/03/19 10:53:41;;;;;;;3.58;1.35;;;;;;;-146.84;100.00;65060.63;4992072;28;20119;-79
2022/03/19 10:56:07;;;;;;;6.82;1.38;;;;;;;-146.84;100.00;65060.63;5001942;28;20304;-80
2022/03/19 10:58:33;;;;;;;6.85;1.30;;;;;;;-146.84;100.00;65060.63;4993864;28;20060;-79
2022/03/19 11:01:02;;;;;;;6.30;1.40;;;;;;;-146.84;100.00;65060.63;4979862;28;20034;-77
2022/03/19 11:03:30;;;;;;;7.07;1.23;;;;;;;-146.84;100.00;65060.63;4998973;28;20041;-81
2022/03/19 11:06:06;;;;;;;2.67;1.08;;;;;;;-146.84;100.00;65060.63;4988598;28;20102;-79
2022/03/19 11:08:38;;;;;;;1.98;1.05;;;;;;;-146.84;100.00;65060.63;4964633;28;20042;-80
2022/03/19 11:11:16;;;;;;;3.50;1.10;;;;;;;-146.84;100.00;65060.63;4965845;28;20134;-78